sensor_id;sensor_type;location;lat;lon;timestamp;temperature;humidity
18229;DHT22;9239;50.932;3.142;2024-01-16T00:01:00;0.30;99.90
18229;DHT22;9239;50.932;3.142;2024-01-16T00:03:28;0.20;99.90
18229;DHT22;9239;50.932;3.142;2024-01-16T00:05:55;0.20;99.90
18229;DHT22;9239;50.932;3.142;2024-01-16T00:08:22;0.20;99.90
18229;DHT22;9239;50.932;3.142;2024-01-16T00:10:49;0.20;99.90
18229;DHT22;9239;50.932;3.142;2024-01-16T00:13:16;0.20;99.90
18229;DHT22;9239;50.932;3.142;2024-01-16T00:15:43;0.20;99.90
18229;DHT22;9239;50.932;3.142;2024-01-16T00:18:10;0.10;99.90
18229;DHT22;9239;50.932;3.142;2024-01-16T00:20:38;0.10;99.90
18229;DHT22;9239;50.932;3.142;2024-01-16T00:23:05;0.10;99.90
18229;DHT22;9239;50.932;3.142;2024-01-16T00:25:32;0.10;99.90
18229;DHT22;9239;50.932;3.142;2024-01-16T00:27:59;0.10;99.90
18229;DHT22;9239;50.932;3.142;2024-01-16T00:30:27;0.10;99.90
18229;DHT22;9239;50.932;3.142;2024-01-16T00:32:55;0.10;99.90
18229;DHT22;9239;50.932;3.142;2024-01-16T00:35:22;0.10;99.90
18229;DHT22;9239;50.932;3.142;2024-01-16T00:37:50;0.10;99.90
18229;DHT22;9239;50.932;3.142;2024-01-16T00:40:17;0.10;99.90
18229;DHT22;9239;50.932;3.142;2024-01-16T00:42:44;0.10;99.90
18229;DHT22;9239;50.932;3.142;2024-01-16T00:45:11;0.10;99.90
18229;DHT22;9239;50.932;3.142;2024-01-16T00:47:38;0.10;99.90
18229;DHT22;9239;50.932;3.142;2024-01-16T00:50:07;0.20;99.90
18229;DHT22;9239;50.932;3.142;2024-01-16T00:52:34;0.10;99.90
18229;DHT22;9239;50.932;3.142;2024-01-16T00:55:03;0.20;99.90
18229;DHT22;9239;50.932;3.142;2024-01-16T00:57:30;0.20;99.90
18229;DHT22;9239;50.932;3.142;2024-01-16T00:59:57;0.20;99.90
18229;DHT22;9239;50.932;3.142;2024-01-16T01:02:24;0.30;99.90
18229;DHT22;9239;50.932;3.142;2024-01-16T01:04:51;0.20;99.90
18229;DHT22;9239;50.932;3.142;2024-01-16T01:07:18;0.20;99.90
18229;DHT22;9239;50.932;3.142;2024-01-16T01:09:45;0.30;99.90
18229;DHT22;9239;50.932;3.142;2024-01-16T01:12:13;0.30;99.90
18229;DHT22;9239;50.932;3.142;2024-01-16T01:14:40;0.30;99.90
18229;DHT22;9239;50.932;3.142;2024-01-16T01:17:07;0.20;99.90
18229;DHT22;9239;50.932;3.142;2024-01-16T01:19:34;0.30;99.90
18229;DHT22;9239;50.932;3.142;2024-01-16T01:22:00;0.30;99.90
18229;DHT22;9239;50.932;3.142;2024-01-16T01:24:27;0.30;99.90
18229;DHT22;9239;50.932;3.142;2024-01-16T01:26:54;0.30;99.90
18229;DHT22;9239;50.932;3.142;2024-01-16T01:29:23;0.30;99.90
18229;DHT22;9239;50.932;3.142;2024-01-16T01:31:50;0.20;99.90
18229;DHT22;9239;50.932;3.142;2024-01-16T01:34:18;0.20;99.90
18229;DHT22;9239;50.932;3.142;2024-01-16T01:36:45;0.20;99.90
18229;DHT22;9239;50.932;3.142;2024-01-16T01:39:11;0.20;99.90
18229;DHT22;9239;50.932;3.142;2024-01-16T01:41:39;0.20;99.90
18229;DHT22;9239;50.932;3.142;2024-01-16T01:44:06;0.20;99.90
18229;DHT22;9239;50.932;3.142;2024-01-16T01:46:34;0.20;99.90
18229;DHT22;9239;50.932;3.142;2024-01-16T01:49:01;0.20;99.90
18229;DHT22;9239;50.932;3.142;2024-01-16T01:51:29;0.10;99.90
18229;DHT22;9239;50.932;3.142;2024-01-16T01:53:56;0.10;99.90
18229;DHT22;9239;50.932;3.142;2024-01-16T01:56:25;0.10;99.90
18229;DHT22;9239;50.932;3.142;2024-01-16T01:58:54;0.00;99.90
18229;DHT22;9239;50.932;3.142;2024-01-16T02:01:23;0.00;99.90
18229;DHT22;9239;50.932;3.142;2024-01-16T02:03:52;0.00;99.90
18229;DHT22;9239;50.932;3.142;2024-01-16T02:06:21;0.00;99.90
18229;DHT22;9239;50.932;3.142;2024-01-16T02:08:49;0.00;99.90
18229;DHT22;9239;50.932;3.142;2024-01-16T02:11:16;0.00;99.90
18229;DHT22;9239;50.932;3.142;2024-01-16T02:13:43;0.00;99.90
18229;DHT22;9239;50.932;3.142;2024-01-16T02:16:18;0.00;99.90
18229;DHT22;9239;50.932;3.142;2024-01-16T02:18:45;0.00;99.90
18229;DHT22;9239;50.932;3.142;2024-01-16T02:21:16;-0.10;99.90
18229;DHT22;9239;50.932;3.142;2024-01-16T02:23:45;-0.10;99.90
18229;DHT22;9239;50.932;3.142;2024-01-16T02:26:13;-0.20;99.90
18229;DHT22;9239;50.932;3.142;2024-01-16T02:28:40;-0.20;99.90
18229;DHT22;9239;50.932;3.142;2024-01-16T02:31:07;-0.10;99.90
18229;DHT22;9239;50.932;3.142;2024-01-16T02:33:34;-0.10;99.90
18229;DHT22;9239;50.932;3.142;2024-01-16T02:36:01;0.00;99.90
18229;DHT22;9239;50.932;3.142;2024-01-16T02:38:28;0.00;99.90
18229;DHT22;9239;50.932;3.142;2024-01-16T02:40:57;0.00;99.90
18229;DHT22;9239;50.932;3.142;2024-01-16T02:43:23;0.00;99.90
18229;DHT22;9239;50.932;3.142;2024-01-16T02:45:52;-0.10;99.90
18229;DHT22;9239;50.932;3.142;2024-01-16T02:48:19;0.00;99.90
18229;DHT22;9239;50.932;3.142;2024-01-16T02:50:47;0.00;99.90
18229;DHT22;9239;50.932;3.142;2024-01-16T02:53:14;0.00;99.90
18229;DHT22;9239;50.932;3.142;2024-01-16T02:55:41;-0.10;99.90
18229;DHT22;9239;50.932;3.142;2024-01-16T02:58:09;-0.10;99.90
18229;DHT22;9239;50.932;3.142;2024-01-16T03:00:36;-0.10;99.90
18229;DHT22;9239;50.932;3.142;2024-01-16T03:03:04;-0.10;99.90
18229;DHT22;9239;50.932;3.142;2024-01-16T03:05:31;-0.10;99.90
18229;DHT22;9239;50.932;3.142;2024-01-16T03:07:58;-0.20;99.90
18229;DHT22;9239;50.932;3.142;2024-01-16T03:10:25;-0.10;99.90
18229;DHT22;9239;50.932;3.142;2024-01-16T03:12:52;-0.10;99.90
18229;DHT22;9239;50.932;3.142;2024-01-16T03:15:20;-0.20;99.90
18229;DHT22;9239;50.932;3.142;2024-01-16T03:17:47;-0.10;99.90
18229;DHT22;9239;50.932;3.142;2024-01-16T03:20:15;-0.10;99.90
18229;DHT22;9239;50.932;3.142;2024-01-16T03:22:42;-0.10;99.90
18229;DHT22;9239;50.932;3.142;2024-01-16T03:25:10;-0.10;99.90
18229;DHT22;9239;50.932;3.142;2024-01-16T03:27:37;0.00;99.90
18229;DHT22;9239;50.932;3.142;2024-01-16T03:30:05;0.00;99.90
18229;DHT22;9239;50.932;3.142;2024-01-16T03:32:35;0.00;99.90
18229;DHT22;9239;50.932;3.142;2024-01-16T03:35:02;0.00;99.90
18229;DHT22;9239;50.932;3.142;2024-01-16T03:37:30;0.00;99.90
18229;DHT22;9239;50.932;3.142;2024-01-16T03:39:57;0.00;99.90
18229;DHT22;9239;50.932;3.142;2024-01-16T03:42:24;0.00;99.90
18229;DHT22;9239;50.932;3.142;2024-01-16T03:44:50;0.00;99.90
18229;DHT22;9239;50.932;3.142;2024-01-16T03:47:18;0.00;99.90
18229;DHT22;9239;50.932;3.142;2024-01-16T03:49:46;0.00;99.90
18229;DHT22;9239;50.932;3.142;2024-01-16T03:52:13;0.00;99.90
18229;DHT22;9239;50.932;3.142;2024-01-16T03:54:40;0.10;99.90
18229;DHT22;9239;50.932;3.142;2024-01-16T03:57:07;0.10;99.90
18229;DHT22;9239;50.932;3.142;2024-01-16T03:59:37;0.10;99.90
18229;DHT22;9239;50.932;3.142;2024-01-16T04:02:04;0.10;99.90
18229;DHT22;9239;50.932;3.142;2024-01-16T04:04:31;0.10;99.90
18229;DHT22;9239;50.932;3.142;2024-01-16T04:06:59;0.10;99.90
18229;DHT22;9239;50.932;3.142;2024-01-16T04:09:26;0.10;99.90
18229;DHT22;9239;50.932;3.142;2024-01-16T04:11:53;0.10;99.90
18229;DHT22;9239;50.932;3.142;2024-01-16T04:14:20;0.10;99.90
18229;DHT22;9239;50.932;3.142;2024-01-16T04:16:47;0.10;99.90
18229;DHT22;9239;50.932;3.142;2024-01-16T04:19:14;0.10;99.90
18229;DHT22;9239;50.932;3.142;2024-01-16T04:21:41;0.10;99.90
18229;DHT22;9239;50.932;3.142;2024-01-16T04:24:09;0.10;99.90
18229;DHT22;9239;50.932;3.142;2024-01-16T04:26:36;0.10;99.90
18229;DHT22;9239;50.932;3.142;2024-01-16T04:29:04;0.10;99.90
18229;DHT22;9239;50.932;3.142;2024-01-16T04:31:31;0.10;99.90
18229;DHT22;9239;50.932;3.142;2024-01-16T04:33:58;0.10;99.90
18229;DHT22;9239;50.932;3.142;2024-01-16T04:36:25;0.10;99.90
18229;DHT22;9239;50.932;3.142;2024-01-16T04:38:52;0.10;99.90
18229;DHT22;9239;50.932;3.142;2024-01-16T04:41:20;0.00;99.90
18229;DHT22;9239;50.932;3.142;2024-01-16T04:43:47;0.00;99.90
18229;DHT22;9239;50.932;3.142;2024-01-16T04:46:15;0.00;99.90
18229;DHT22;9239;50.932;3.142;2024-01-16T04:48:42;0.00;99.90
18229;DHT22;9239;50.932;3.142;2024-01-16T04:51:09;0.00;99.90
18229;DHT22;9239;50.932;3.142;2024-01-16T04:53:36;0.00;99.90
18229;DHT22;9239;50.932;3.142;2024-01-16T04:56:03;0.00;99.90
18229;DHT22;9239;50.932;3.142;2024-01-16T04:58:32;0.00;99.90
18229;DHT22;9239;50.932;3.142;2024-01-16T05:00:59;0.00;99.90
18229;DHT22;9239;50.932;3.142;2024-01-16T05:03:26;0.10;99.90
18229;DHT22;9239;50.932;3.142;2024-01-16T05:05:53;0.10;99.90
18229;DHT22;9239;50.932;3.142;2024-01-16T05:08:21;0.20;99.90
18229;DHT22;9239;50.932;3.142;2024-01-16T05:10:48;0.20;99.90
18229;DHT22;9239;50.932;3.142;2024-01-16T05:13:16;0.30;99.90
18229;DHT22;9239;50.932;3.142;2024-01-16T05:15:44;0.30;99.90
18229;DHT22;9239;50.932;3.142;2024-01-16T05:18:11;0.40;99.90
18229;DHT22;9239;50.932;3.142;2024-01-16T05:20:38;0.40;99.90
18229;DHT22;9239;50.932;3.142;2024-01-16T05:23:05;0.40;99.90
18229;DHT22;9239;50.932;3.142;2024-01-16T05:25:32;0.40;99.90
18229;DHT22;9239;50.932;3.142;2024-01-16T05:27:59;0.40;99.90
18229;DHT22;9239;50.932;3.142;2024-01-16T05:30:26;0.40;99.90
18229;DHT22;9239;50.932;3.142;2024-01-16T05:32:54;0.50;99.90
18229;DHT22;9239;50.932;3.142;2024-01-16T05:35:21;0.50;99.90
18229;DHT22;9239;50.932;3.142;2024-01-16T05:37:49;0.50;99.90
18229;DHT22;9239;50.932;3.142;2024-01-16T05:40:16;0.60;99.90
18229;DHT22;9239;50.932;3.142;2024-01-16T05:42:43;0.60;99.90
18229;DHT22;9239;50.932;3.142;2024-01-16T05:45:11;0.60;99.90
18229;DHT22;9239;50.932;3.142;2024-01-16T05:47:39;0.60;99.90
18229;DHT22;9239;50.932;3.142;2024-01-16T05:50:08;0.70;99.90
18229;DHT22;9239;50.932;3.142;2024-01-16T05:52:35;0.60;99.90
18229;DHT22;9239;50.932;3.142;2024-01-16T05:55:03;0.60;99.90
18229;DHT22;9239;50.932;3.142;2024-01-16T05:57:30;0.60;99.90
18229;DHT22;9239;50.932;3.142;2024-01-16T05:59:59;0.60;99.90
18229;DHT22;9239;50.932;3.142;2024-01-16T06:02:28;0.60;99.90
18229;DHT22;9239;50.932;3.142;2024-01-16T06:04:55;0.50;99.90
18229;DHT22;9239;50.932;3.142;2024-01-16T06:07:23;0.50;99.90
18229;DHT22;9239;50.932;3.142;2024-01-16T06:09:50;0.50;99.90
18229;DHT22;9239;50.932;3.142;2024-01-16T06:12:17;0.50;99.90
18229;DHT22;9239;50.932;3.142;2024-01-16T06:14:44;0.50;99.90
18229;DHT22;9239;50.932;3.142;2024-01-16T06:17:11;0.40;99.90
18229;DHT22;9239;50.932;3.142;2024-01-16T06:19:38;0.40;99.90
18229;DHT22;9239;50.932;3.142;2024-01-16T06:22:05;0.30;99.90
18229;DHT22;9239;50.932;3.142;2024-01-16T06:24:33;0.30;99.90
18229;DHT22;9239;50.932;3.142;2024-01-16T06:27:04;0.30;99.90
18229;DHT22;9239;50.932;3.142;2024-01-16T06:29:31;0.30;99.90
18229;DHT22;9239;50.932;3.142;2024-01-16T06:31:58;0.30;99.90
18229;DHT22;9239;50.932;3.142;2024-01-16T06:34:25;0.30;99.90
18229;DHT22;9239;50.932;3.142;2024-01-16T06:36:52;0.60;99.90
18229;DHT22;9239;50.932;3.142;2024-01-16T06:39:19;0.60;99.90
18229;DHT22;9239;50.932;3.142;2024-01-16T06:41:48;0.50;99.90
18229;DHT22;9239;50.932;3.142;2024-01-16T06:44:14;0.40;99.90
18229;DHT22;9239;50.932;3.142;2024-01-16T06:46:41;0.30;99.90
18229;DHT22;9239;50.932;3.142;2024-01-16T06:49:08;0.20;99.90
18229;DHT22;9239;50.932;3.142;2024-01-16T06:51:35;0.20;99.90
18229;DHT22;9239;50.932;3.142;2024-01-16T06:54:02;0.10;99.90
18229;DHT22;9239;50.932;3.142;2024-01-16T06:56:30;0.00;99.90
18229;DHT22;9239;50.932;3.142;2024-01-16T06:58:58;-0.10;99.90
18229;DHT22;9239;50.932;3.142;2024-01-16T07:01:26;-0.10;99.90
18229;DHT22;9239;50.932;3.142;2024-01-16T07:03:53;-0.20;99.90
18229;DHT22;9239;50.932;3.142;2024-01-16T07:06:20;-0.20;99.90
18229;DHT22;9239;50.932;3.142;2024-01-16T07:08:47;-0.20;99.90
18229;DHT22;9239;50.932;3.142;2024-01-16T07:11:14;-0.20;99.90
18229;DHT22;9239;50.932;3.142;2024-01-16T07:13:41;-0.20;99.90
18229;DHT22;9239;50.932;3.142;2024-01-16T07:16:11;-0.20;99.90
18229;DHT22;9239;50.932;3.142;2024-01-16T07:18:38;-0.30;99.90
18229;DHT22;9239;50.932;3.142;2024-01-16T07:21:16;-0.20;99.90
18229;DHT22;9239;50.932;3.142;2024-01-16T07:23:43;-0.20;99.90
18229;DHT22;9239;50.932;3.142;2024-01-16T07:26:10;-0.10;99.90
18229;DHT22;9239;50.932;3.142;2024-01-16T07:28:37;-0.10;99.90
18229;DHT22;9239;50.932;3.142;2024-01-16T07:31:04;-0.10;99.90
18229;DHT22;9239;50.932;3.142;2024-01-16T07:33:32;-0.10;99.90
18229;DHT22;9239;50.932;3.142;2024-01-16T07:35:59;-0.10;99.90
18229;DHT22;9239;50.932;3.142;2024-01-16T07:38:26;-0.10;99.90
18229;DHT22;9239;50.932;3.142;2024-01-16T07:40:53;-0.20;99.90
18229;DHT22;9239;50.932;3.142;2024-01-16T07:43:21;-0.20;99.90
18229;DHT22;9239;50.932;3.142;2024-01-16T07:45:49;-0.20;99.90
18229;DHT22;9239;50.932;3.142;2024-01-16T07:48:16;-0.20;99.90
18229;DHT22;9239;50.932;3.142;2024-01-16T07:50:44;-0.20;99.90
18229;DHT22;9239;50.932;3.142;2024-01-16T07:53:11;-0.20;99.90
18229;DHT22;9239;50.932;3.142;2024-01-16T07:55:38;-0.10;99.90
18229;DHT22;9239;50.932;3.142;2024-01-16T07:58:05;-0.10;99.90
18229;DHT22;9239;50.932;3.142;2024-01-16T08:00:32;0.00;99.90
18229;DHT22;9239;50.932;3.142;2024-01-16T08:02:59;0.00;99.90
18229;DHT22;9239;50.932;3.142;2024-01-16T08:05:26;0.10;99.90
18229;DHT22;9239;50.932;3.142;2024-01-16T08:07:57;0.10;99.90
18229;DHT22;9239;50.932;3.142;2024-01-16T08:10:24;0.20;99.90
18229;DHT22;9239;50.932;3.142;2024-01-16T08:12:51;0.20;99.90
18229;DHT22;9239;50.932;3.142;2024-01-16T08:15:18;0.20;99.90
18229;DHT22;9239;50.932;3.142;2024-01-16T08:17:45;0.30;99.90
18229;DHT22;9239;50.932;3.142;2024-01-16T08:20:12;0.30;99.90
18229;DHT22;9239;50.932;3.142;2024-01-16T08:22:39;0.40;99.90
18229;DHT22;9239;50.932;3.142;2024-01-16T08:25:07;0.40;99.90
18229;DHT22;9239;50.932;3.142;2024-01-16T08:27:34;0.40;99.90
18229;DHT22;9239;50.932;3.142;2024-01-16T08:30:03;0.40;99.90
18229;DHT22;9239;50.932;3.142;2024-01-16T08:32:31;0.50;99.90
18229;DHT22;9239;50.932;3.142;2024-01-16T08:34:58;0.50;99.90
18229;DHT22;9239;50.932;3.142;2024-01-16T08:37:25;0.60;99.90
18229;DHT22;9239;50.932;3.142;2024-01-16T08:39:52;0.60;99.90
18229;DHT22;9239;50.932;3.142;2024-01-16T08:42:20;0.60;99.90
18229;DHT22;9239;50.932;3.142;2024-01-16T08:44:47;0.70;99.90
18229;DHT22;9239;50.932;3.142;2024-01-16T08:47:15;0.80;99.90
18229;DHT22;9239;50.932;3.142;2024-01-16T08:49:42;0.80;99.90
18229;DHT22;9239;50.932;3.142;2024-01-16T08:52:09;0.90;99.90
18229;DHT22;9239;50.932;3.142;2024-01-16T08:54:36;1.10;99.90
18229;DHT22;9239;50.932;3.142;2024-01-16T08:57:03;1.10;99.90
18229;DHT22;9239;50.932;3.142;2024-01-16T08:59:32;1.10;99.90
18229;DHT22;9239;50.932;3.142;2024-01-16T09:01:59;1.00;99.90
18229;DHT22;9239;50.932;3.142;2024-01-16T09:04:26;1.00;99.90
18229;DHT22;9239;50.932;3.142;2024-01-16T09:06:53;1.00;99.90
18229;DHT22;9239;50.932;3.142;2024-01-16T09:09:20;0.90;99.90
18229;DHT22;9239;50.932;3.142;2024-01-16T09:11:47;1.00;99.90
18229;DHT22;9239;50.932;3.142;2024-01-16T09:14:14;1.00;99.90
18229;DHT22;9239;50.932;3.142;2024-01-16T09:16:42;1.00;99.90
18229;DHT22;9239;50.932;3.142;2024-01-16T09:19:09;0.90;99.90
18229;DHT22;9239;50.932;3.142;2024-01-16T09:21:36;0.90;99.90
18229;DHT22;9239;50.932;3.142;2024-01-16T09:24:03;0.80;99.90
18229;DHT22;9239;50.932;3.142;2024-01-16T09:26:30;0.80;99.90
18229;DHT22;9239;50.932;3.142;2024-01-16T09:28:58;0.80;99.90
18229;DHT22;9239;50.932;3.142;2024-01-16T09:31:25;0.90;99.90
18229;DHT22;9239;50.932;3.142;2024-01-16T09:33:53;0.90;99.90
18229;DHT22;9239;50.932;3.142;2024-01-16T09:36:20;0.90;99.90
18229;DHT22;9239;50.932;3.142;2024-01-16T09:38:47;0.90;99.90
18229;DHT22;9239;50.932;3.142;2024-01-16T09:41:14;1.00;99.90
18229;DHT22;9239;50.932;3.142;2024-01-16T09:43:43;1.00;99.90
18229;DHT22;9239;50.932;3.142;2024-01-16T09:46:11;0.90;99.90
18229;DHT22;9239;50.932;3.142;2024-01-16T09:48:38;1.00;99.90
18229;DHT22;9239;50.932;3.142;2024-01-16T09:51:08;0.90;99.90
18229;DHT22;9239;50.932;3.142;2024-01-16T09:53:35;1.00;99.90
18229;DHT22;9239;50.932;3.142;2024-01-16T09:56:04;1.00;99.90
18229;DHT22;9239;50.932;3.142;2024-01-16T09:58:34;1.00;99.90
18229;DHT22;9239;50.932;3.142;2024-01-16T10:01:03;0.90;99.90
18229;DHT22;9239;50.932;3.142;2024-01-16T10:03:31;1.00;99.90
18229;DHT22;9239;50.932;3.142;2024-01-16T10:06:02;1.00;99.90
18229;DHT22;9239;50.932;3.142;2024-01-16T10:08:32;1.10;99.90
18229;DHT22;9239;50.932;3.142;2024-01-16T10:10:59;1.10;99.90
18229;DHT22;9239;50.932;3.142;2024-01-16T10:13:26;1.20;99.90
18229;DHT22;9239;50.932;3.142;2024-01-16T10:15:53;1.20;99.90
18229;DHT22;9239;50.932;3.142;2024-01-16T10:18:24;1.30;99.90
18229;DHT22;9239;50.932;3.142;2024-01-16T10:20:51;1.30;99.90
18229;DHT22;9239;50.932;3.142;2024-01-16T10:23:23;1.40;99.90
18229;DHT22;9239;50.932;3.142;2024-01-16T10:28:43;1.40;99.90
18229;DHT22;9239;50.932;3.142;2024-01-16T10:31:12;1.60;99.90
18229;DHT22;9239;50.932;3.142;2024-01-16T10:33:40;1.70;99.90
18229;DHT22;9239;50.932;3.142;2024-01-16T10:36:12;1.70;99.90
18229;DHT22;9239;50.932;3.142;2024-01-16T10:38:43;1.80;99.90
18229;DHT22;9239;50.932;3.142;2024-01-16T10:41:11;1.80;99.90
18229;DHT22;9239;50.932;3.142;2024-01-16T10:43:38;1.90;99.90
18229;DHT22;9239;50.932;3.142;2024-01-16T10:46:11;2.00;99.90
18229;DHT22;9239;50.932;3.142;2024-01-16T10:48:39;2.10;99.90
18229;DHT22;9239;50.932;3.142;2024-01-16T10:51:07;2.10;99.90
18229;DHT22;9239;50.932;3.142;2024-01-16T10:53:35;2.20;99.90
18229;DHT22;9239;50.932;3.142;2024-01-16T10:56:09;2.20;99.90
18229;DHT22;9239;50.932;3.142;2024-01-16T10:58:40;2.30;99.90
18229;DHT22;9239;50.932;3.142;2024-01-16T11:01:11;2.30;99.90
18229;DHT22;9239;50.932;3.142;2024-01-16T11:03:43;2.40;99.90
18229;DHT22;9239;50.932;3.142;2024-01-16T11:06:15;2.40;99.90
18229;DHT22;9239;50.932;3.142;2024-01-16T11:08:42;2.50;99.90
18229;DHT22;9239;50.932;3.142;2024-01-16T11:11:09;2.60;99.90
18229;DHT22;9239;50.932;3.142;2024-01-16T11:13:36;2.60;99.90
18229;DHT22;9239;50.932;3.142;2024-01-16T11:16:04;2.70;99.90
18229;DHT22;9239;50.932;3.142;2024-01-16T11:18:34;2.80;99.90
18229;DHT22;9239;50.932;3.142;2024-01-16T11:21:03;2.80;99.90
18229;DHT22;9239;50.932;3.142;2024-01-16T11:23:31;2.90;99.90
18229;DHT22;9239;50.932;3.142;2024-01-16T11:26:00;3.00;99.90
18229;DHT22;9239;50.932;3.142;2024-01-16T11:28:47;3.10;99.90
18229;DHT22;9239;50.932;3.142;2024-01-16T11:31:28;3.10;99.90
18229;DHT22;9239;50.932;3.142;2024-01-16T11:33:57;3.00;99.90
18229;DHT22;9239;50.932;3.142;2024-01-16T11:36:49;3.10;99.90
18229;DHT22;9239;50.932;3.142;2024-01-16T11:39:18;3.00;99.90
18229;DHT22;9239;50.932;3.142;2024-01-16T11:41:49;3.00;99.90
18229;DHT22;9239;50.932;3.142;2024-01-16T11:44:45;3.00;99.90
18229;DHT22;9239;50.932;3.142;2024-01-16T11:47:16;3.10;99.90
18229;DHT22;9239;50.932;3.142;2024-01-16T11:49:46;3.10;99.90
18229;DHT22;9239;50.932;3.142;2024-01-16T11:52:13;3.10;99.90
18229;DHT22;9239;50.932;3.142;2024-01-16T11:54:40;3.10;99.90
18229;DHT22;9239;50.932;3.142;2024-01-16T11:57:44;3.20;99.90
18229;DHT22;9239;50.932;3.142;2024-01-16T12:00:19;3.20;99.90
18229;DHT22;9239;50.932;3.142;2024-01-16T12:02:53;3.20;99.90
18229;DHT22;9239;50.932;3.142;2024-01-16T12:05:24;3.30;99.90
18229;DHT22;9239;50.932;3.142;2024-01-16T12:07:53;3.30;99.90
18229;DHT22;9239;50.932;3.142;2024-01-16T12:10:21;3.40;99.90
18229;DHT22;9239;50.932;3.142;2024-01-16T12:12:49;3.40;99.90
18229;DHT22;9239;50.932;3.142;2024-01-16T12:15:17;3.50;99.90
18229;DHT22;9239;50.932;3.142;2024-01-16T12:17:55;3.50;99.90
18229;DHT22;9239;50.932;3.142;2024-01-16T12:20:25;3.50;99.90
18229;DHT22;9239;50.932;3.142;2024-01-16T12:22:56;3.60;99.90
18229;DHT22;9239;50.932;3.142;2024-01-16T12:25:23;3.60;99.90
18229;DHT22;9239;50.932;3.142;2024-01-16T12:27:57;3.60;99.90
18229;DHT22;9239;50.932;3.142;2024-01-16T12:30:25;3.70;99.90
18229;DHT22;9239;50.932;3.142;2024-01-16T12:33:03;3.70;99.90
18229;DHT22;9239;50.932;3.142;2024-01-16T12:35:33;3.70;99.90
18229;DHT22;9239;50.932;3.142;2024-01-16T12:38:01;3.70;99.90
18229;DHT22;9239;50.932;3.142;2024-01-16T12:40:28;3.80;99.90
18229;DHT22;9239;50.932;3.142;2024-01-16T12:42:55;3.80;99.90
18229;DHT22;9239;50.932;3.142;2024-01-16T12:45:23;3.80;99.90
18229;DHT22;9239;50.932;3.142;2024-01-16T12:47:51;3.80;99.90
18229;DHT22;9239;50.932;3.142;2024-01-16T12:50:22;3.80;99.90
18229;DHT22;9239;50.932;3.142;2024-01-16T12:53:01;3.80;99.90
18229;DHT22;9239;50.932;3.142;2024-01-16T12:55:28;3.90;99.90
18229;DHT22;9239;50.932;3.142;2024-01-16T12:58:16;3.90;99.90
18229;DHT22;9239;50.932;3.142;2024-01-16T13:00:43;3.90;99.90
18229;DHT22;9239;50.932;3.142;2024-01-16T13:03:20;3.90;99.90
18229;DHT22;9239;50.932;3.142;2024-01-16T13:05:55;3.90;99.90
18229;DHT22;9239;50.932;3.142;2024-01-16T13:08:24;3.90;99.90
18229;DHT22;9239;50.932;3.142;2024-01-16T13:11:02;4.00;99.90
18229;DHT22;9239;50.932;3.142;2024-01-16T13:13:30;4.00;99.90
18229;DHT22;9239;50.932;3.142;2024-01-16T13:15:57;4.00;99.90
18229;DHT22;9239;50.932;3.142;2024-01-16T13:18:25;4.00;99.90
18229;DHT22;9239;50.932;3.142;2024-01-16T13:20:53;4.00;99.90
18229;DHT22;9239;50.932;3.142;2024-01-16T13:23:22;4.00;99.90
18229;DHT22;9239;50.932;3.142;2024-01-16T13:25:51;4.00;99.90
18229;DHT22;9239;50.932;3.142;2024-01-16T13:28:19;4.00;99.90
18229;DHT22;9239;50.932;3.142;2024-01-16T13:30:47;4.00;99.90
18229;DHT22;9239;50.932;3.142;2024-01-16T13:33:15;4.00;99.90
18229;DHT22;9239;50.932;3.142;2024-01-16T13:35:45;4.00;99.90
18229;DHT22;9239;50.932;3.142;2024-01-16T13:38:13;4.00;99.90
18229;DHT22;9239;50.932;3.142;2024-01-16T13:40:42;4.10;99.90
18229;DHT22;9239;50.932;3.142;2024-01-16T13:43:09;4.10;99.90
18229;DHT22;9239;50.932;3.142;2024-01-16T13:45:37;4.10;99.90
18229;DHT22;9239;50.932;3.142;2024-01-16T13:48:05;4.00;99.90
18229;DHT22;9239;50.932;3.142;2024-01-16T13:50:33;4.00;99.90
18229;DHT22;9239;50.932;3.142;2024-01-16T13:53:00;4.00;99.90
18229;DHT22;9239;50.932;3.142;2024-01-16T13:55:27;4.00;99.90
18229;DHT22;9239;50.932;3.142;2024-01-16T13:57:55;4.10;99.90
18229;DHT22;9239;50.932;3.142;2024-01-16T14:00:23;4.10;99.90
18229;DHT22;9239;50.932;3.142;2024-01-16T14:02:50;4.10;99.90
18229;DHT22;9239;50.932;3.142;2024-01-16T14:05:19;4.00;99.90
18229;DHT22;9239;50.932;3.142;2024-01-16T14:07:47;4.10;99.90
18229;DHT22;9239;50.932;3.142;2024-01-16T14:10:16;4.10;99.90
18229;DHT22;9239;50.932;3.142;2024-01-16T14:12:44;4.10;99.90
18229;DHT22;9239;50.932;3.142;2024-01-16T14:15:14;4.00;99.90
18229;DHT22;9239;50.932;3.142;2024-01-16T14:17:47;4.00;99.90
18229;DHT22;9239;50.932;3.142;2024-01-16T14:20:15;4.00;99.90
18229;DHT22;9239;50.932;3.142;2024-01-16T14:22:43;4.00;99.90
18229;DHT22;9239;50.932;3.142;2024-01-16T14:25:11;3.90;99.90
18229;DHT22;9239;50.932;3.142;2024-01-16T14:27:40;3.90;99.90
18229;DHT22;9239;50.932;3.142;2024-01-16T14:32:38;3.90;99.90
18229;DHT22;9239;50.932;3.142;2024-01-16T14:35:06;3.90;99.90
18229;DHT22;9239;50.932;3.142;2024-01-16T14:37:35;3.90;99.90
18229;DHT22;9239;50.932;3.142;2024-01-16T14:40:03;3.80;99.90
18229;DHT22;9239;50.932;3.142;2024-01-16T14:42:33;3.80;99.90
18229;DHT22;9239;50.932;3.142;2024-01-16T14:45:00;3.80;99.90
18229;DHT22;9239;50.932;3.142;2024-01-16T14:47:27;3.80;99.90
18229;DHT22;9239;50.932;3.142;2024-01-16T14:49:55;3.80;99.90
18229;DHT22;9239;50.932;3.142;2024-01-16T14:52:23;3.80;99.90
18229;DHT22;9239;50.932;3.142;2024-01-16T14:54:50;3.80;99.90
18229;DHT22;9239;50.932;3.142;2024-01-16T14:57:18;3.80;99.90
18229;DHT22;9239;50.932;3.142;2024-01-16T14:59:44;3.80;99.90
18229;DHT22;9239;50.932;3.142;2024-01-16T15:02:11;3.70;99.90
18229;DHT22;9239;50.932;3.142;2024-01-16T15:04:39;3.70;99.90
18229;DHT22;9239;50.932;3.142;2024-01-16T15:07:08;3.60;99.90
18229;DHT22;9239;50.932;3.142;2024-01-16T15:09:35;3.60;99.90
18229;DHT22;9239;50.932;3.142;2024-01-16T15:12:04;3.50;99.90
18229;DHT22;9239;50.932;3.142;2024-01-16T15:14:31;3.50;99.90
18229;DHT22;9239;50.932;3.142;2024-01-16T15:16:59;3.40;99.90
18229;DHT22;9239;50.932;3.142;2024-01-16T15:19:26;3.30;99.90
18229;DHT22;9239;50.932;3.142;2024-01-16T15:21:53;3.30;99.90
18229;DHT22;9239;50.932;3.142;2024-01-16T15:24:21;3.30;99.90
18229;DHT22;9239;50.932;3.142;2024-01-16T15:26:52;3.20;99.90
18229;DHT22;9239;50.932;3.142;2024-01-16T15:29:19;3.20;99.90
18229;DHT22;9239;50.932;3.142;2024-01-16T15:31:46;3.10;99.90
18229;DHT22;9239;50.932;3.142;2024-01-16T15:34:13;3.10;99.90
18229;DHT22;9239;50.932;3.142;2024-01-16T15:36:40;3.00;99.90
18229;DHT22;9239;50.932;3.142;2024-01-16T15:39:07;2.90;99.90
18229;DHT22;9239;50.932;3.142;2024-01-16T15:41:36;2.90;99.90
18229;DHT22;9239;50.932;3.142;2024-01-16T15:44:03;2.80;99.90
18229;DHT22;9239;50.932;3.142;2024-01-16T15:46:31;2.70;99.90
18229;DHT22;9239;50.932;3.142;2024-01-16T15:48:58;2.60;99.90
18229;DHT22;9239;50.932;3.142;2024-01-16T15:51:25;2.60;99.90
18229;DHT22;9239;50.932;3.142;2024-01-16T15:53:52;2.50;99.90
18229;DHT22;9239;50.932;3.142;2024-01-16T15:56:19;2.40;99.90
18229;DHT22;9239;50.932;3.142;2024-01-16T15:58:47;2.30;99.90
18229;DHT22;9239;50.932;3.142;2024-01-16T16:01:15;2.20;99.90
18229;DHT22;9239;50.932;3.142;2024-01-16T16:03:42;2.20;99.90
18229;DHT22;9239;50.932;3.142;2024-01-16T16:06:10;2.10;99.90
18229;DHT22;9239;50.932;3.142;2024-01-16T16:08:38;2.00;99.90
18229;DHT22;9239;50.932;3.142;2024-01-16T16:11:06;1.90;99.90